SAS083 ESSA-ESSV
Flight info
| Callsign | SAS083 |
|---|---|
| Flight time | 0h 27m |
| Altitude | 21000 |
| Route | N0382F210 BABAP T316 GOTAL |
| Aircraft | A21N/M-SDE3FGHIJ1J3J4J7M3P2RWXYZ/LB1D1 |
Departure
| Time | 2026-05-06 18:34 |
|---|---|
| Airport | Stockholm-Arlanda Airport (ESSA) |
Arrival
| Time | 2026-05-06 19:02 |
|---|---|
| Airport | Visby Airport (ESSV) |
| Time | Latitude | Longitude | Altitude | Speed | Heading |
|---|---|---|---|---|---|
| 2026-05-06 18:15 | 59.65149 | 17.92699 | 117 ft | 0 kts | 190° |
| 2026-05-06 18:24 | 59.65168 | 17.92706 | 115 ft | 4 kts | 190° |
| 2026-05-06 18:24 | 59.65194 | 17.92716 | 116 ft | 4 kts | 190° |
| 2026-05-06 18:24 | 59.65221 | 17.92727 | 114 ft | 4 kts | 190° |
| 2026-05-06 18:24 | 59.65247 | 17.92737 | 112 ft | 4 kts | 190° |
| 2026-05-06 18:25 | 59.65252 | 17.92738 | 112 ft | 1 kts | 190° |
| 2026-05-06 18:27 | 59.65250 | 17.92738 | 112 ft | 1 kts | 190° |
| 2026-05-06 18:27 | 59.65248 | 17.92737 | 112 ft | 0 kts | 190° |
| 2026-05-06 18:28 | 59.65246 | 17.92735 | 112 ft | 1 kts | 202° |
| 2026-05-06 18:28 | 59.65243 | 17.92698 | 113 ft | 4 kts | 276° |
| 2026-05-06 18:28 | 59.65254 | 17.92622 | 116 ft | 7 kts | 288° |
| 2026-05-06 18:29 | 59.65273 | 17.92508 | 115 ft | 10 kts | 288° |
| 2026-05-06 18:29 | 59.65299 | 17.92361 | 114 ft | 12 kts | 290° |
| 2026-05-06 18:29 | 59.65367 | 17.92278 | 110 ft | 14 kts | 9° |
| 2026-05-06 18:29 | 59.65471 | 17.92315 | 110 ft | 16 kts | 10° |
| 2026-05-06 18:30 | 59.65593 | 17.92359 | 110 ft | 19 kts | 10° |
| 2026-05-06 18:30 | 59.65731 | 17.92410 | 110 ft | 21 kts | 10° |
| 2026-05-06 18:30 | 59.65886 | 17.92465 | 113 ft | 24 kts | 10° |
| 2026-05-06 18:30 | 59.66061 | 17.92527 | 116 ft | 27 kts | 10° |
| 2026-05-06 18:31 | 59.66175 | 17.92571 | 118 ft | 18 kts | 11° |
| 2026-05-06 18:31 | 59.66310 | 17.92620 | 120 ft | 22 kts | 10° |
| 2026-05-06 18:31 | 59.66461 | 17.92661 | 126 ft | 19 kts | 345° |
| 2026-05-06 18:31 | 59.66583 | 17.92572 | 128 ft | 11 kts | 339° |
| 2026-05-06 18:32 | 59.66616 | 17.92424 | 129 ft | 14 kts | 256° |
| 2026-05-06 18:32 | 59.66552 | 17.92344 | 128 ft | 0 kts | 190° |
| 2026-05-06 18:33 | 59.66551 | 17.92344 | 128 ft | 1 kts | 190° |
| 2026-05-06 18:33 | 59.66521 | 17.92333 | 128 ft | 28 kts | 190° |
| 2026-05-06 18:34 | 59.66050 | 17.92163 | 121 ft | 104 kts | 190° |
| 2026-05-06 18:34 | 59.65136 | 17.91833 | 114 ft | 157 kts | 188° |
| 2026-05-06 18:34 | 59.64036 | 17.91428 | 695 ft | 160 kts | 188° |
| 2026-05-06 18:34 | 59.62940 | 17.91026 | 1448 ft | 167 kts | 190° |
| 2026-05-06 18:35 | 59.61725 | 17.90615 | 2085 ft | 183 kts | 185° |
| 2026-05-06 18:35 | 59.60397 | 17.90556 | 2871 ft | 199 kts | 182° |
| 2026-05-06 18:35 | 59.58980 | 17.90388 | 3877 ft | 208 kts | 184° |
| 2026-05-06 18:35 | 59.57507 | 17.90335 | 4902 ft | 217 kts | 175° |
| 2026-05-06 18:36 | 59.56082 | 17.91407 | 5889 ft | 226 kts | 147° |
| 2026-05-06 18:36 | 59.54757 | 17.93111 | 6505 ft | 228 kts | 147° |
| 2026-05-06 18:36 | 59.53412 | 17.94806 | 7332 ft | 231 kts | 147° |
| 2026-05-06 18:36 | 59.52042 | 17.96570 | 8302 ft | 243 kts | 148° |
| 2026-05-06 18:37 | 59.50564 | 17.98517 | 8935 ft | 268 kts | 147° |
| 2026-05-06 18:37 | 59.48963 | 18.00625 | 9766 ft | 284 kts | 147° |
| 2026-05-06 18:37 | 59.47289 | 18.02830 | 10677 ft | 298 kts | 147° |
| 2026-05-06 18:37 | 59.45436 | 18.05028 | 11175 ft | 325 kts | 154° |
| 2026-05-06 18:38 | 59.43330 | 18.07115 | 11607 ft | 353 kts | 155° |
| 2026-05-06 18:38 | 59.41071 | 18.09326 | 12257 ft | 370 kts | 155° |
| 2026-05-06 18:38 | 59.38749 | 18.11616 | 13263 ft | 376 kts | 155° |
| 2026-05-06 18:38 | 59.36394 | 18.13944 | 14251 ft | 382 kts | 156° |
| 2026-05-06 18:39 | 59.34004 | 18.16306 | 15153 ft | 387 kts | 156° |
| 2026-05-06 18:39 | 59.31486 | 18.18123 | 15987 ft | 386 kts | 172° |
| 2026-05-06 18:39 | 59.28818 | 18.18766 | 16839 ft | 387 kts | 179° |
| 2026-05-06 18:40 | 59.23389 | 18.19634 | 18497 ft | 396 kts | 179° |
| 2026-05-06 18:40 | 59.20602 | 18.20142 | 19214 ft | 400 kts | 179° |
| 2026-05-06 18:40 | 59.17818 | 18.20674 | 19887 ft | 404 kts | 179° |
| 2026-05-06 18:40 | 59.15012 | 18.21228 | 20535 ft | 408 kts | 179° |
| 2026-05-06 18:41 | 59.12184 | 18.21789 | 20928 ft | 410 kts | 179° |
| 2026-05-06 18:41 | 59.09309 | 18.22356 | 21029 ft | 423 kts | 179° |
| 2026-05-06 18:41 | 59.06329 | 18.22940 | 21028 ft | 431 kts | 179° |
| 2026-05-06 18:41 | 59.03406 | 18.23527 | 20604 ft | 417 kts | 179° |
| 2026-05-06 18:42 | 59.00525 | 18.24097 | 19620 ft | 418 kts | 179° |
| 2026-05-06 18:42 | 58.97617 | 18.24657 | 18653 ft | 421 kts | 178° |
| 2026-05-06 18:42 | 58.94721 | 18.25215 | 18168 ft | 412 kts | 178° |
| 2026-05-06 18:42 | 58.91920 | 18.25760 | 17894 ft | 397 kts | 178° |
| 2026-05-06 18:43 | 58.89220 | 18.26288 | 17656 ft | 382 kts | 178° |
| 2026-05-06 18:43 | 58.86623 | 18.26796 | 17434 ft | 368 kts | 178° |
| 2026-05-06 18:43 | 58.84125 | 18.27281 | 17231 ft | 354 kts | 178° |
| 2026-05-06 18:43 | 58.81715 | 18.27749 | 17052 ft | 341 kts | 178° |
| 2026-05-06 18:44 | 58.79397 | 18.28199 | 16877 ft | 328 kts | 178° |
| 2026-05-06 18:44 | 58.77170 | 18.28633 | 16700 ft | 316 kts | 178° |
| 2026-05-06 18:44 | 58.75005 | 18.29050 | 16353 ft | 311 kts | 178° |
| 2026-05-06 18:44 | 58.72861 | 18.29460 | 15907 ft | 309 kts | 178° |
| 2026-05-06 18:45 | 58.70727 | 18.29869 | 15504 ft | 308 kts | 178° |
| 2026-05-06 18:45 | 58.68596 | 18.30277 | 15201 ft | 308 kts | 177° |
| 2026-05-06 18:45 | 58.66472 | 18.30684 | 14889 ft | 306 kts | 177° |
| 2026-05-06 18:45 | 58.64348 | 18.31090 | 14596 ft | 305 kts | 177° |
| 2026-05-06 18:46 | 58.62237 | 18.31489 | 14309 ft | 304 kts | 176° |
| 2026-05-06 18:46 | 58.60135 | 18.31890 | 14032 ft | 304 kts | 176° |
| 2026-05-06 18:46 | 58.58036 | 18.32291 | 13769 ft | 303 kts | 176° |
| 2026-05-06 18:46 | 58.55937 | 18.32688 | 13463 ft | 303 kts | 176° |
| 2026-05-06 18:47 | 58.53848 | 18.33085 | 13165 ft | 301 kts | 176° |
| 2026-05-06 18:47 | 58.51764 | 18.33482 | 12871 ft | 300 kts | 176° |
| 2026-05-06 18:47 | 58.49690 | 18.33874 | 12577 ft | 299 kts | 176° |
| 2026-05-06 18:47 | 58.47627 | 18.34265 | 12285 ft | 297 kts | 175° |
| 2026-05-06 18:48 | 58.45548 | 18.34660 | 11995 ft | 296 kts | 175° |
| 2026-05-06 18:48 | 58.43504 | 18.35050 | 11708 ft | 295 kts | 176° |
| 2026-05-06 18:48 | 58.41471 | 18.35435 | 11424 ft | 293 kts | 175° |
| 2026-05-06 18:48 | 58.39446 | 18.35815 | 11147 ft | 292 kts | 175° |
| 2026-05-06 18:49 | 58.37431 | 18.36198 | 10868 ft | 290 kts | 175° |
| 2026-05-06 18:49 | 58.35426 | 18.36579 | 10587 ft | 289 kts | 175° |
| 2026-05-06 18:49 | 58.33435 | 18.36952 | 10315 ft | 286 kts | 174° |
| 2026-05-06 18:49 | 58.31466 | 18.37318 | 10038 ft | 281 kts | 174° |
| 2026-05-06 18:50 | 58.29559 | 18.37672 | 9980 ft | 269 kts | 174° |
| 2026-05-06 18:50 | 58.27751 | 18.38009 | 9971 ft | 253 kts | 174° |
| 2026-05-06 18:50 | 58.26045 | 18.38327 | 9975 ft | 243 kts | 173° |
| 2026-05-06 18:50 | 58.24363 | 18.38643 | 9995 ft | 243 kts | 174° |
| 2026-05-06 18:51 | 58.22682 | 18.38959 | 9999 ft | 242 kts | 174° |
| 2026-05-06 18:51 | 58.21000 | 18.39275 | 10002 ft | 243 kts | 174° |
| 2026-05-06 18:51 | 58.19317 | 18.39591 | 10001 ft | 242 kts | 174° |
| 2026-05-06 18:51 | 58.17660 | 18.39900 | 9658 ft | 241 kts | 173° |
| 2026-05-06 18:52 | 58.15956 | 18.40218 | 9073 ft | 250 kts | 173° |
| 2026-05-06 18:52 | 58.14190 | 18.40548 | 8509 ft | 258 kts | 173° |
| 2026-05-06 18:52 | 58.12406 | 18.40880 | 8128 ft | 258 kts | 173° |
| 2026-05-06 18:52 | 58.10626 | 18.41208 | 7866 ft | 253 kts | 173° |
| 2026-05-06 18:53 | 58.08908 | 18.41531 | 7623 ft | 246 kts | 173° |
| 2026-05-06 18:53 | 58.07231 | 18.41846 | 7430 ft | 236 kts | 173° |
| 2026-05-06 18:53 | 58.05616 | 18.42148 | 7163 ft | 231 kts | 173° |
| 2026-05-06 18:53 | 58.04019 | 18.42447 | 6817 ft | 231 kts | 173° |
| 2026-05-06 18:54 | 58.02422 | 18.42744 | 6475 ft | 229 kts | 173° |
| 2026-05-06 18:54 | 58.00820 | 18.43039 | 6131 ft | 228 kts | 173° |
| 2026-05-06 18:54 | 57.99245 | 18.43300 | 5772 ft | 227 kts | 177° |
| 2026-05-06 18:54 | 57.97659 | 18.43256 | 5402 ft | 228 kts | 181° |
| 2026-05-06 18:55 | 57.96124 | 18.43141 | 5282 ft | 212 kts | 180° |
| 2026-05-06 18:55 | 57.94647 | 18.43030 | 4992 ft | 213 kts | 180° |
| 2026-05-06 18:55 | 57.93188 | 18.42919 | 4715 ft | 208 kts | 180° |
| 2026-05-06 18:55 | 57.91763 | 18.42800 | 4477 ft | 201 kts | 180° |
| 2026-05-06 18:56 | 57.90400 | 18.42718 | 4311 ft | 193 kts | 179° |
| 2026-05-06 18:56 | 57.89061 | 18.42750 | 4130 ft | 192 kts | 176° |
| 2026-05-06 18:56 | 57.87727 | 18.42801 | 4053 ft | 192 kts | 177° |
| 2026-05-06 18:56 | 57.86413 | 18.42838 | 3959 ft | 184 kts | 177° |
| 2026-05-06 18:57 | 57.85171 | 18.42869 | 3794 ft | 174 kts | 176° |
| 2026-05-06 18:57 | 57.83982 | 18.42917 | 3635 ft | 170 kts | 177° |
| 2026-05-06 18:57 | 57.82842 | 18.42883 | 3517 ft | 155 kts | 180° |
| 2026-05-06 18:57 | 57.81811 | 18.42764 | 3347 ft | 146 kts | 182° |
| 2026-05-06 18:58 | 57.80810 | 18.42503 | 3122 ft | 145 kts | 187° |
| 2026-05-06 18:58 | 57.79815 | 18.42172 | 2971 ft | 145 kts | 187° |
| 2026-05-06 18:58 | 57.78826 | 18.41826 | 2822 ft | 144 kts | 187° |
| 2026-05-06 18:58 | 57.77842 | 18.41474 | 2628 ft | 144 kts | 188° |
| 2026-05-06 18:59 | 57.76864 | 18.41080 | 2415 ft | 143 kts | 189° |
| 2026-05-06 18:59 | 57.75886 | 18.40719 | 2211 ft | 143 kts | 187° |
| 2026-05-06 18:59 | 57.74917 | 18.40309 | 1989 ft | 143 kts | 191° |
| 2026-05-06 18:59 | 57.73958 | 18.39861 | 1723 ft | 141 kts | 189° |
| 2026-05-06 19:00 | 57.73328 | 18.39565 | 1568 ft | 142 kts | 191° |
| 2026-05-06 19:00 | 57.72070 | 18.38746 | 1338 ft | 143 kts | 198° |
| 2026-05-06 19:00 | 57.71140 | 18.38082 | 1157 ft | 142 kts | 197° |
| 2026-05-06 19:00 | 57.70517 | 18.37646 | 1007 ft | 141 kts | 196° |
| 2026-05-06 19:01 | 57.69597 | 18.36998 | 763 ft | 142 kts | 198° |
| 2026-05-06 19:01 | 57.68681 | 18.36330 | 538 ft | 141 kts | 197° |
| 2026-05-06 19:01 | 57.67771 | 18.35689 | 345 ft | 139 kts | 198° |
| 2026-05-06 19:01 | 57.66873 | 18.35042 | 160 ft | 136 kts | 198° |
| 2026-05-06 19:02 | 57.66135 | 18.34519 | 156 ft | 76 kts | 200° |
| 2026-05-06 19:02 | 57.65918 | 18.34373 | 154 ft | 16 kts | 192° |
| 2026-05-06 19:02 | 57.65858 | 18.34331 | 154 ft | 5 kts | 269° |
| 2026-05-06 19:02 | 57.65901 | 18.34337 | 153 ft | 8 kts | 23° |
| 2026-05-06 19:03 | 57.65963 | 18.34325 | 154 ft | 12 kts | 301° |
| 2026-05-06 19:03 | 57.65997 | 18.34170 | 151 ft | 14 kts | 289° |
| 2026-05-06 19:03 | 57.66023 | 18.34031 | 150 ft | 9 kts | 291° |
| 2026-05-06 19:03 | 57.66045 | 18.33963 | 151 ft | 0 kts | 326° |
| 2026-05-06 19:04 | 57.66053 | 18.33955 | 151 ft | 1 kts | 335° |
| 2026-05-06 19:04 | 57.66058 | 18.33951 | 151 ft | 0 kts | 335° |